Terminal Aerodrome Forecast
Issued by NWS

Home | Current Version | Previous Version | Text Only | Print | Product List | Glossary On
Versions: 1 2 3 4 5 6 7 8 9 10 11 12 13 14 15 16 17 18 19 20 21 22 23
000
FTUS43 KJKL 291739
TAFSME
TAF
KSME 291739Z 2918/3018 22012G22KT P6SM VCTS SCT045CB
     FM300000 VRB04KT P6SM VCTS SCT045CB BKN080
     FM300400 VRB03KT 6SM BR SCT050
     FM300800 00000KT 3SM BR FEW007 SCT050
     FM301200 VRB03KT P6SM SCT050=

USA.gov is the U.S. government's official web portal to all federal, state and local government web resources and services.